sensor_id;sensor_type;location;lat;lon;timestamp;P1;durP1;ratioP1;P2;durP2;ratioP2
11247;SDS011;5681;53.316;13.950;2023-08-17T00:01:48;7.13;;;3.50;;
11247;SDS011;5681;53.316;13.950;2023-08-17T00:04:15;6.95;;;3.70;;
11247;SDS011;5681;53.316;13.950;2023-08-17T00:06:41;7.13;;;3.80;;
11247;SDS011;5681;53.316;13.950;2023-08-17T00:09:08;8.68;;;3.53;;
11247;SDS011;5681;53.316;13.950;2023-08-17T00:11:35;7.63;;;3.70;;
11247;SDS011;5681;53.316;13.950;2023-08-17T00:14:02;6.07;;;3.17;;
11247;SDS011;5681;53.316;13.950;2023-08-17T00:16:29;7.75;;;3.45;;
11247;SDS011;5681;53.316;13.950;2023-08-17T00:18:56;8.82;;;3.67;;
11247;SDS011;5681;53.316;13.950;2023-08-17T00:21:23;7.22;;;3.78;;
11247;SDS011;5681;53.316;13.950;2023-08-17T00:23:49;9.02;;;3.63;;
11247;SDS011;5681;53.316;13.950;2023-08-17T00:26:16;7.75;;;3.50;;
11247;SDS011;5681;53.316;13.950;2023-08-17T00:28:42;10.05;;;3.90;;
11247;SDS011;5681;53.316;13.950;2023-08-17T00:31:09;6.55;;;3.20;;
11247;SDS011;5681;53.316;13.950;2023-08-17T00:33:37;7.93;;;3.67;;
11247;SDS011;5681;53.316;13.950;2023-08-17T00:36:03;8.45;;;3.75;;
11247;SDS011;5681;53.316;13.950;2023-08-17T00:38:30;10.00;;;4.35;;
11247;SDS011;5681;53.316;13.950;2023-08-17T00:40:56;7.97;;;3.67;;
11247;SDS011;5681;53.316;13.950;2023-08-17T00:43:23;10.85;;;3.92;;
11247;SDS011;5681;53.316;13.950;2023-08-17T00:45:49;8.07;;;3.72;;
11247;SDS011;5681;53.316;13.950;2023-08-17T00:48:15;6.82;;;3.83;;
11247;SDS011;5681;53.316;13.950;2023-08-17T00:50:43;7.72;;;3.75;;
11247;SDS011;5681;53.316;13.950;2023-08-17T00:53:10;9.88;;;3.78;;
11247;SDS011;5681;53.316;13.950;2023-08-17T00:55:38;11.98;;;4.05;;
11247;SDS011;5681;53.316;13.950;2023-08-17T00:58:05;8.70;;;4.07;;
11247;SDS011;5681;53.316;13.950;2023-08-17T01:00:31;9.82;;;3.88;;
11247;SDS011;5681;53.316;13.950;2023-08-17T01:02:57;7.15;;;3.88;;
11247;SDS011;5681;53.316;13.950;2023-08-17T01:05:24;13.77;;;4.30;;
11247;SDS011;5681;53.316;13.950;2023-08-17T01:07:51;8.13;;;3.65;;
11247;SDS011;5681;53.316;13.950;2023-08-17T01:10:18;7.45;;;3.85;;
11247;SDS011;5681;53.316;13.950;2023-08-17T01:12:46;7.30;;;3.55;;
11247;SDS011;5681;53.316;13.950;2023-08-17T01:15:16;6.85;;;3.42;;
11247;SDS011;5681;53.316;13.950;2023-08-17T01:17:47;8.77;;;4.03;;
11247;SDS011;5681;53.316;13.950;2023-08-17T01:20:19;8.73;;;3.85;;
11247;SDS011;5681;53.316;13.950;2023-08-17T01:22:47;6.43;;;3.40;;
11247;SDS011;5681;53.316;13.950;2023-08-17T01:25:16;9.40;;;3.70;;
11247;SDS011;5681;53.316;13.950;2023-08-17T01:27:43;5.47;;;3.15;;
11247;SDS011;5681;53.316;13.950;2023-08-17T01:30:11;5.57;;;3.38;;
11247;SDS011;5681;53.316;13.950;2023-08-17T01:32:39;5.97;;;3.33;;
11247;SDS011;5681;53.316;13.950;2023-08-17T01:35:11;5.45;;;2.70;;
11247;SDS011;5681;53.316;13.950;2023-08-17T01:37:42;8.48;;;3.45;;
11247;SDS011;5681;53.316;13.950;2023-08-17T01:40:09;8.27;;;3.28;;
11247;SDS011;5681;53.316;13.950;2023-08-17T01:42:37;7.47;;;3.75;;
11247;SDS011;5681;53.316;13.950;2023-08-17T01:45:05;9.48;;;3.40;;
11247;SDS011;5681;53.316;13.950;2023-08-17T01:47:32;8.23;;;3.60;;
11247;SDS011;5681;53.316;13.950;2023-08-17T01:49:58;10.45;;;3.17;;
11247;SDS011;5681;53.316;13.950;2023-08-17T01:52:25;7.40;;;3.28;;
11247;SDS011;5681;53.316;13.950;2023-08-17T01:54:52;7.03;;;3.20;;
11247;SDS011;5681;53.316;13.950;2023-08-17T01:57:19;11.20;;;3.40;;
11247;SDS011;5681;53.316;13.950;2023-08-17T01:59:47;8.32;;;3.15;;
11247;SDS011;5681;53.316;13.950;2023-08-17T02:02:13;5.43;;;3.08;;
11247;SDS011;5681;53.316;13.950;2023-08-17T02:04:40;7.35;;;2.80;;
11247;SDS011;5681;53.316;13.950;2023-08-17T02:07:06;7.55;;;2.75;;
11247;SDS011;5681;53.316;13.950;2023-08-17T02:09:33;12.32;;;3.58;;
11247;SDS011;5681;53.316;13.950;2023-08-17T02:11:59;8.38;;;3.10;;
11247;SDS011;5681;53.316;13.950;2023-08-17T02:14:25;8.93;;;3.15;;
11247;SDS011;5681;53.316;13.950;2023-08-17T02:16:53;5.18;;;2.70;;
11247;SDS011;5681;53.316;13.950;2023-08-17T02:19:19;7.30;;;2.85;;
11247;SDS011;5681;53.316;13.950;2023-08-17T02:21:46;5.63;;;2.70;;
11247;SDS011;5681;53.316;13.950;2023-08-17T02:24:12;7.22;;;2.83;;
11247;SDS011;5681;53.316;13.950;2023-08-17T02:26:38;9.30;;;2.67;;
11247;SDS011;5681;53.316;13.950;2023-08-17T02:29:05;6.72;;;2.75;;
11247;SDS011;5681;53.316;13.950;2023-08-17T02:31:31;7.97;;;2.78;;
11247;SDS011;5681;53.316;13.950;2023-08-17T02:33:59;7.40;;;2.92;;
11247;SDS011;5681;53.316;13.950;2023-08-17T02:36:30;9.32;;;2.80;;
11247;SDS011;5681;53.316;13.950;2023-08-17T02:38:56;6.47;;;2.40;;
11247;SDS011;5681;53.316;13.950;2023-08-17T02:41:22;7.60;;;2.30;;
11247;SDS011;5681;53.316;13.950;2023-08-17T02:43:49;5.38;;;2.78;;
11247;SDS011;5681;53.316;13.950;2023-08-17T02:46:15;5.85;;;2.67;;
11247;SDS011;5681;53.316;13.950;2023-08-17T02:48:41;6.13;;;2.40;;
11247;SDS011;5681;53.316;13.950;2023-08-17T02:51:09;5.95;;;2.33;;
11247;SDS011;5681;53.316;13.950;2023-08-17T02:53:36;6.95;;;2.47;;
11247;SDS011;5681;53.316;13.950;2023-08-17T02:56:02;6.43;;;2.92;;
11247;SDS011;5681;53.316;13.950;2023-08-17T02:58:29;6.65;;;2.88;;
11247;SDS011;5681;53.316;13.950;2023-08-17T03:00:55;9.75;;;3.20;;
11247;SDS011;5681;53.316;13.950;2023-08-17T03:03:21;8.18;;;3.05;;
11247;SDS011;5681;53.316;13.950;2023-08-17T03:05:48;7.88;;;3.35;;
11247;SDS011;5681;53.316;13.950;2023-08-17T03:08:15;6.28;;;3.08;;
11247;SDS011;5681;53.316;13.950;2023-08-17T03:10:42;8.80;;;3.72;;
11247;SDS011;5681;53.316;13.950;2023-08-17T03:13:08;9.00;;;3.65;;
11247;SDS011;5681;53.316;13.950;2023-08-17T03:15:34;8.80;;;3.50;;
11247;SDS011;5681;53.316;13.950;2023-08-17T03:18:04;11.68;;;3.97;;
11247;SDS011;5681;53.316;13.950;2023-08-17T03:20:31;8.13;;;3.47;;
11247;SDS011;5681;53.316;13.950;2023-08-17T03:22:57;9.50;;;3.55;;
11247;SDS011;5681;53.316;13.950;2023-08-17T03:25:25;9.23;;;3.60;;
11247;SDS011;5681;53.316;13.950;2023-08-17T03:27:51;7.82;;;3.45;;
11247;SDS011;5681;53.316;13.950;2023-08-17T03:30:17;7.93;;;3.15;;
11247;SDS011;5681;53.316;13.950;2023-08-17T03:32:44;7.40;;;3.38;;
11247;SDS011;5681;53.316;13.950;2023-08-17T03:35:10;7.47;;;3.30;;
11247;SDS011;5681;53.316;13.950;2023-08-17T03:37:38;7.93;;;3.42;;
11247;SDS011;5681;53.316;13.950;2023-08-17T03:40:05;6.20;;;2.78;;
11247;SDS011;5681;53.316;13.950;2023-08-17T03:42:33;6.93;;;3.10;;
11247;SDS011;5681;53.316;13.950;2023-08-17T03:45:00;5.95;;;3.08;;
11247;SDS011;5681;53.316;13.950;2023-08-17T03:47:26;4.78;;;3.13;;
11247;SDS011;5681;53.316;13.950;2023-08-17T03:49:52;6.05;;;2.63;;
11247;SDS011;5681;53.316;13.950;2023-08-17T03:52:19;9.73;;;3.58;;
11247;SDS011;5681;53.316;13.950;2023-08-17T03:54:45;8.88;;;2.60;;
11247;SDS011;5681;53.316;13.950;2023-08-17T03:57:11;7.97;;;2.78;;
11247;SDS011;5681;53.316;13.950;2023-08-17T03:59:40;5.13;;;2.38;;
11247;SDS011;5681;53.316;13.950;2023-08-17T04:02:07;7.45;;;2.65;;
11247;SDS011;5681;53.316;13.950;2023-08-17T04:04:33;7.25;;;2.85;;
11247;SDS011;5681;53.316;13.950;2023-08-17T04:06:59;7.20;;;3.20;;
11247;SDS011;5681;53.316;13.950;2023-08-17T04:09:26;7.75;;;3.08;;
11247;SDS011;5681;53.316;13.950;2023-08-17T04:11:52;4.55;;;2.90;;
11247;SDS011;5681;53.316;13.950;2023-08-17T04:14:19;7.65;;;3.22;;
11247;SDS011;5681;53.316;13.950;2023-08-17T04:16:47;6.53;;;2.80;;
11247;SDS011;5681;53.316;13.950;2023-08-17T04:19:13;9.32;;;2.97;;
11247;SDS011;5681;53.316;13.950;2023-08-17T04:21:40;9.45;;;3.20;;
11247;SDS011;5681;53.316;13.950;2023-08-17T04:24:06;5.88;;;2.80;;
11247;SDS011;5681;53.316;13.950;2023-08-17T04:26:33;8.68;;;2.78;;
11247;SDS011;5681;53.316;13.950;2023-08-17T04:28:59;8.45;;;3.05;;
11247;SDS011;5681;53.316;13.950;2023-08-17T04:31:25;7.95;;;2.65;;
11247;SDS011;5681;53.316;13.950;2023-08-17T04:33:54;11.13;;;2.88;;
11247;SDS011;5681;53.316;13.950;2023-08-17T04:36:20;7.68;;;2.40;;
11247;SDS011;5681;53.316;13.950;2023-08-17T04:38:46;7.30;;;2.63;;
11247;SDS011;5681;53.316;13.950;2023-08-17T04:41:13;10.93;;;3.00;;
11247;SDS011;5681;53.316;13.950;2023-08-17T04:43:39;7.50;;;2.42;;
11247;SDS011;5681;53.316;13.950;2023-08-17T04:46:06;8.15;;;2.70;;
11247;SDS011;5681;53.316;13.950;2023-08-17T04:48:32;7.32;;;2.80;;
11247;SDS011;5681;53.316;13.950;2023-08-17T04:51:00;8.77;;;2.65;;
11247;SDS011;5681;53.316;13.950;2023-08-17T04:53:26;9.35;;;2.65;;
11247;SDS011;5681;53.316;13.950;2023-08-17T04:55:52;6.07;;;2.58;;
11247;SDS011;5681;53.316;13.950;2023-08-17T04:58:19;5.65;;;2.30;;
11247;SDS011;5681;53.316;13.950;2023-08-17T05:00:45;7.95;;;2.63;;
11247;SDS011;5681;53.316;13.950;2023-08-17T05:03:12;4.82;;;2.28;;
11247;SDS011;5681;53.316;13.950;2023-08-17T05:05:39;6.72;;;2.45;;
11247;SDS011;5681;53.316;13.950;2023-08-17T05:08:06;9.40;;;3.03;;
11247;SDS011;5681;53.316;13.950;2023-08-17T05:10:33;9.15;;;2.85;;
11247;SDS011;5681;53.316;13.950;2023-08-17T05:12:59;7.45;;;2.63;;
11247;SDS011;5681;53.316;13.950;2023-08-17T05:15:26;7.75;;;2.80;;
11247;SDS011;5681;53.316;13.950;2023-08-17T05:17:52;5.57;;;2.08;;
11247;SDS011;5681;53.316;13.950;2023-08-17T05:20:18;4.43;;;2.13;;
11247;SDS011;5681;53.316;13.950;2023-08-17T05:22:45;9.90;;;2.40;;
11247;SDS011;5681;53.316;13.950;2023-08-17T05:25:13;8.07;;;2.47;;
11247;SDS011;5681;53.316;13.950;2023-08-17T05:27:40;6.75;;;2.28;;
11247;SDS011;5681;53.316;13.950;2023-08-17T05:30:07;8.95;;;2.40;;
11247;SDS011;5681;53.316;13.950;2023-08-17T05:32:33;6.07;;;2.30;;
11247;SDS011;5681;53.316;13.950;2023-08-17T05:35:00;8.90;;;2.10;;
11247;SDS011;5681;53.316;13.950;2023-08-17T05:37:26;6.80;;;2.35;;
11247;SDS011;5681;53.316;13.950;2023-08-17T05:39:52;5.50;;;1.90;;
11247;SDS011;5681;53.316;13.950;2023-08-17T05:42:20;6.50;;;2.03;;
11247;SDS011;5681;53.316;13.950;2023-08-17T05:44:46;9.57;;;2.53;;
11247;SDS011;5681;53.316;13.950;2023-08-17T05:47:13;8.60;;;1.95;;
11247;SDS011;5681;53.316;13.950;2023-08-17T05:49:42;6.07;;;2.17;;
11247;SDS011;5681;53.316;13.950;2023-08-17T05:52:09;4.20;;;1.85;;
11247;SDS011;5681;53.316;13.950;2023-08-17T05:54:35;5.65;;;2.47;;
11247;SDS011;5681;53.316;13.950;2023-08-17T05:57:02;8.35;;;2.42;;
11247;SDS011;5681;53.316;13.950;2023-08-17T05:59:30;7.30;;;2.13;;
11247;SDS011;5681;53.316;13.950;2023-08-17T06:01:56;6.22;;;2.10;;
11247;SDS011;5681;53.316;13.950;2023-08-17T06:04:23;4.32;;;1.80;;
11247;SDS011;5681;53.316;13.950;2023-08-17T06:06:49;4.35;;;1.90;;
11247;SDS011;5681;53.316;13.950;2023-08-17T06:09:16;5.07;;;1.92;;
11247;SDS011;5681;53.316;13.950;2023-08-17T06:11:42;5.20;;;1.92;;
11247;SDS011;5681;53.316;13.950;2023-08-17T06:14:08;5.45;;;1.80;;
11247;SDS011;5681;53.316;13.950;2023-08-17T06:16:36;5.53;;;1.95;;
11247;SDS011;5681;53.316;13.950;2023-08-17T06:19:03;5.30;;;1.80;;
11247;SDS011;5681;53.316;13.950;2023-08-17T06:21:29;6.18;;;2.10;;
11247;SDS011;5681;53.316;13.950;2023-08-17T06:23:56;4.70;;;2.10;;
11247;SDS011;5681;53.316;13.950;2023-08-17T06:26:22;5.35;;;1.75;;
11247;SDS011;5681;53.316;13.950;2023-08-17T06:28:48;7.55;;;2.10;;
11247;SDS011;5681;53.316;13.950;2023-08-17T06:31:15;5.32;;;1.65;;
11247;SDS011;5681;53.316;13.950;2023-08-17T06:33:43;6.32;;;2.15;;
11247;SDS011;5681;53.316;13.950;2023-08-17T06:36:09;4.78;;;1.73;;
11247;SDS011;5681;53.316;13.950;2023-08-17T06:38:38;5.15;;;1.90;;
11247;SDS011;5681;53.316;13.950;2023-08-17T06:41:04;4.25;;;1.90;;
11247;SDS011;5681;53.316;13.950;2023-08-17T06:43:30;3.83;;;1.88;;
11247;SDS011;5681;53.316;13.950;2023-08-17T06:45:57;8.55;;;2.10;;
11247;SDS011;5681;53.316;13.950;2023-08-17T06:48:25;3.67;;;1.83;;
11247;SDS011;5681;53.316;13.950;2023-08-17T06:50:52;6.43;;;1.90;;
11247;SDS011;5681;53.316;13.950;2023-08-17T06:53:19;7.65;;;2.03;;
11247;SDS011;5681;53.316;13.950;2023-08-17T06:55:45;6.10;;;1.83;;
11247;SDS011;5681;53.316;13.950;2023-08-17T06:58:12;3.08;;;1.60;;
11247;SDS011;5681;53.316;13.950;2023-08-17T07:00:38;5.78;;;1.55;;
11247;SDS011;5681;53.316;13.950;2023-08-17T07:03:05;5.05;;;1.73;;
11247;SDS011;5681;53.316;13.950;2023-08-17T07:05:32;4.00;;;1.70;;
11247;SDS011;5681;53.316;13.950;2023-08-17T07:08:00;2.92;;;1.42;;
11247;SDS011;5681;53.316;13.950;2023-08-17T07:10:27;3.60;;;1.63;;
11247;SDS011;5681;53.316;13.950;2023-08-17T07:12:53;5.68;;;1.83;;
11247;SDS011;5681;53.316;13.950;2023-08-17T07:15:19;4.30;;;1.92;;
11247;SDS011;5681;53.316;13.950;2023-08-17T07:17:46;9.43;;;1.48;;
11247;SDS011;5681;53.316;13.950;2023-08-17T07:20:12;4.20;;;1.70;;
11247;SDS011;5681;53.316;13.950;2023-08-17T07:22:38;4.80;;;1.67;;
11247;SDS011;5681;53.316;13.950;2023-08-17T07:25:07;3.92;;;1.33;;
11247;SDS011;5681;53.316;13.950;2023-08-17T07:27:34;2.97;;;1.20;;
11247;SDS011;5681;53.316;13.950;2023-08-17T07:30:00;3.00;;;1.25;;
11247;SDS011;5681;53.316;13.950;2023-08-17T07:32:27;3.42;;;1.10;;
11247;SDS011;5681;53.316;13.950;2023-08-17T07:34:53;4.75;;;1.52;;
11247;SDS011;5681;53.316;13.950;2023-08-17T07:37:19;4.30;;;1.42;;
11247;SDS011;5681;53.316;13.950;2023-08-17T07:39:46;3.95;;;1.52;;
11247;SDS011;5681;53.316;13.950;2023-08-17T07:42:13;3.05;;;1.40;;
11247;SDS011;5681;53.316;13.950;2023-08-17T07:44:40;7.68;;;1.67;;
11247;SDS011;5681;53.316;13.950;2023-08-17T07:47:07;6.55;;;1.40;;
11247;SDS011;5681;53.316;13.950;2023-08-17T07:49:33;2.30;;;1.25;;
11247;SDS011;5681;53.316;13.950;2023-08-17T07:51:59;3.08;;;1.30;;
11247;SDS011;5681;53.316;13.950;2023-08-17T07:54:26;3.15;;;1.30;;
11247;SDS011;5681;53.316;13.950;2023-08-17T07:56:52;3.90;;;1.20;;
11247;SDS011;5681;53.316;13.950;2023-08-17T07:59:20;4.40;;;1.13;;
11247;SDS011;5681;53.316;13.950;2023-08-17T08:01:46;5.80;;;1.60;;
11247;SDS011;5681;53.316;13.950;2023-08-17T08:04:12;7.32;;;1.30;;
11247;SDS011;5681;53.316;13.950;2023-08-17T08:06:39;3.95;;;0.90;;
11247;SDS011;5681;53.316;13.950;2023-08-17T08:09:05;1.13;;;0.68;;
11247;SDS011;5681;53.316;13.950;2023-08-17T08:11:32;3.75;;;0.95;;
11247;SDS011;5681;53.316;13.950;2023-08-17T08:13:58;3.90;;;0.95;;
11247;SDS011;5681;53.316;13.950;2023-08-17T08:16:26;2.33;;;0.90;;
11247;SDS011;5681;53.316;13.950;2023-08-17T08:18:52;1.80;;;0.70;;
11247;SDS011;5681;53.316;13.950;2023-08-17T08:21:18;3.35;;;0.70;;
11247;SDS011;5681;53.316;13.950;2023-08-17T08:23:45;2.95;;;0.68;;
11247;SDS011;5681;53.316;13.950;2023-08-17T08:26:11;1.83;;;0.70;;
11247;SDS011;5681;53.316;13.950;2023-08-17T08:28:39;1.92;;;0.70;;
11247;SDS011;5681;53.316;13.950;2023-08-17T08:31:05;2.97;;;1.30;;
11247;SDS011;5681;53.316;13.950;2023-08-17T08:33:33;3.10;;;0.80;;
11247;SDS011;5681;53.316;13.950;2023-08-17T08:35:59;1.42;;;0.60;;
11247;SDS011;5681;53.316;13.950;2023-08-17T08:38:26;1.42;;;0.70;;
11247;SDS011;5681;53.316;13.950;2023-08-17T08:40:54;2.67;;;0.75;;
11247;SDS011;5681;53.316;13.950;2023-08-17T08:43:20;3.30;;;0.80;;
11247;SDS011;5681;53.316;13.950;2023-08-17T08:45:46;2.60;;;0.80;;
11247;SDS011;5681;53.316;13.950;2023-08-17T08:48:14;1.02;;;0.70;;
11247;SDS011;5681;53.316;13.950;2023-08-17T08:50:42;3.05;;;0.70;;
11247;SDS011;5681;53.316;13.950;2023-08-17T08:53:10;1.52;;;0.77;;
11247;SDS011;5681;53.316;13.950;2023-08-17T08:55:39;4.10;;;0.90;;
11247;SDS011;5681;53.316;13.950;2023-08-17T08:58:08;3.30;;;0.98;;
11247;SDS011;5681;53.316;13.950;2023-08-17T09:00:34;4.18;;;1.13;;
11247;SDS011;5681;53.316;13.950;2023-08-17T09:03:01;3.40;;;0.80;;
11247;SDS011;5681;53.316;13.950;2023-08-17T09:05:28;2.92;;;1.00;;
11247;SDS011;5681;53.316;13.950;2023-08-17T09:07:56;3.65;;;0.88;;
11247;SDS011;5681;53.316;13.950;2023-08-17T09:10:23;3.42;;;0.80;;
11247;SDS011;5681;53.316;13.950;2023-08-17T09:12:50;1.10;;;0.60;;
11247;SDS011;5681;53.316;13.950;2023-08-17T09:15:16;1.67;;;0.90;;
11247;SDS011;5681;53.316;13.950;2023-08-17T09:17:43;1.35;;;0.77;;
11247;SDS011;5681;53.316;13.950;2023-08-17T09:20:10;1.58;;;0.75;;
11247;SDS011;5681;53.316;13.950;2023-08-17T09:22:37;1.75;;;0.88;;
11247;SDS011;5681;53.316;13.950;2023-08-17T09:25:07;3.13;;;0.90;;
11247;SDS011;5681;53.316;13.950;2023-08-17T09:27:33;1.65;;;0.90;;
11247;SDS011;5681;53.316;13.950;2023-08-17T09:30:03;1.38;;;0.75;;
11247;SDS011;5681;53.316;13.950;2023-08-17T09:32:31;1.42;;;0.98;;
11247;SDS011;5681;53.316;13.950;2023-08-17T09:35:00;4.25;;;0.98;;
11247;SDS011;5681;53.316;13.950;2023-08-17T09:37:27;5.38;;;1.00;;
11247;SDS011;5681;53.316;13.950;2023-08-17T09:39:53;2.50;;;0.80;;
11247;SDS011;5681;53.316;13.950;2023-08-17T09:42:21;1.77;;;0.82;;
11247;SDS011;5681;53.316;13.950;2023-08-17T09:44:48;4.47;;;0.90;;
11247;SDS011;5681;53.316;13.950;2023-08-17T09:47:15;2.10;;;0.88;;
11247;SDS011;5681;53.316;13.950;2023-08-17T09:49:42;6.75;;;1.52;;
11247;SDS011;5681;53.316;13.950;2023-08-17T09:52:08;1.83;;;0.75;;
11247;SDS011;5681;53.316;13.950;2023-08-17T09:54:36;4.22;;;0.82;;
11247;SDS011;5681;53.316;13.950;2023-08-17T09:57:03;1.20;;;0.60;;
11247;SDS011;5681;53.316;13.950;2023-08-17T09:59:32;1.95;;;0.80;;
11247;SDS011;5681;53.316;13.950;2023-08-17T10:01:58;1.77;;;0.73;;
11247;SDS011;5681;53.316;13.950;2023-08-17T10:04:25;1.77;;;0.82;;
11247;SDS011;5681;53.316;13.950;2023-08-17T10:06:53;2.22;;;0.85;;
11247;SDS011;5681;53.316;13.950;2023-08-17T10:09:23;3.13;;;0.80;;
11247;SDS011;5681;53.316;13.950;2023-08-17T10:11:51;2.13;;;1.02;;
11247;SDS011;5681;53.316;13.950;2023-08-17T10:14:21;2.58;;;0.90;;
11247;SDS011;5681;53.316;13.950;2023-08-17T10:16:53;2.40;;;1.10;;
11247;SDS011;5681;53.316;13.950;2023-08-17T10:19:25;6.25;;;0.93;;
11247;SDS011;5681;53.316;13.950;2023-08-17T10:22:00;6.28;;;0.88;;
11247;SDS011;5681;53.316;13.950;2023-08-17T10:24:30;2.72;;;0.90;;
11247;SDS011;5681;53.316;13.950;2023-08-17T10:26:58;2.65;;;0.80;;
11247;SDS011;5681;53.316;13.950;2023-08-17T10:29:25;3.40;;;0.88;;
11247;SDS011;5681;53.316;13.950;2023-08-17T10:31:52;2.63;;;1.10;;
11247;SDS011;5681;53.316;13.950;2023-08-17T10:34:19;1.60;;;0.80;;
11247;SDS011;5681;53.316;13.950;2023-08-17T10:36:46;3.05;;;0.70;;
11247;SDS011;5681;53.316;13.950;2023-08-17T10:39:19;4.30;;;0.90;;
11247;SDS011;5681;53.316;13.950;2023-08-17T10:41:46;3.08;;;1.05;;
11247;SDS011;5681;53.316;13.950;2023-08-17T10:44:13;1.92;;;1.00;;
11247;SDS011;5681;53.316;13.950;2023-08-17T10:46:40;8.73;;;1.23;;
11247;SDS011;5681;53.316;13.950;2023-08-17T10:49:24;5.80;;;1.08;;
11247;SDS011;5681;53.316;13.950;2023-08-17T10:52:02;5.80;;;1.10;;
11247;SDS011;5681;53.316;13.950;2023-08-17T10:54:35;4.35;;;1.10;;
11247;SDS011;5681;53.316;13.950;2023-08-17T11:00:16;4.30;;;1.20;;
11247;SDS011;5681;53.316;13.950;2023-08-17T11:02:51;3.33;;;1.05;;
11247;SDS011;5681;53.316;13.950;2023-08-17T11:08:20;3.92;;;1.00;;
11247;SDS011;5681;53.316;13.950;2023-08-17T11:10:48;5.30;;;1.10;;
11247;SDS011;5681;53.316;13.950;2023-08-17T11:13:23;3.05;;;1.00;;
11247;SDS011;5681;53.316;13.950;2023-08-17T11:15:50;1.58;;;0.90;;
11247;SDS011;5681;53.316;13.950;2023-08-17T11:18:16;4.20;;;1.20;;
11247;SDS011;5681;53.316;13.950;2023-08-17T11:20:42;2.00;;;1.27;;
11247;SDS011;5681;53.316;13.950;2023-08-17T11:23:09;5.88;;;1.13;;
11247;SDS011;5681;53.316;13.950;2023-08-17T11:25:37;3.97;;;1.73;;
11247;SDS011;5681;53.316;13.950;2023-08-17T11:28:05;1.85;;;1.02;;
11247;SDS011;5681;53.316;13.950;2023-08-17T11:30:32;4.93;;;1.10;;
11247;SDS011;5681;53.316;13.950;2023-08-17T11:33:00;3.17;;;1.20;;
11247;SDS011;5681;53.316;13.950;2023-08-17T11:35:27;6.05;;;1.00;;
11247;SDS011;5681;53.316;13.950;2023-08-17T11:37:53;4.20;;;1.10;;
11247;SDS011;5681;53.316;13.950;2023-08-17T11:40:19;6.97;;;1.52;;
11247;SDS011;5681;53.316;13.950;2023-08-17T11:42:47;3.78;;;1.27;;
11247;SDS011;5681;53.316;13.950;2023-08-17T11:45:14;3.80;;;0.95;;
11247;SDS011;5681;53.316;13.950;2023-08-17T11:47:40;4.30;;;1.10;;
11247;SDS011;5681;53.316;13.950;2023-08-17T11:50:08;3.53;;;1.25;;
11247;SDS011;5681;53.316;13.950;2023-08-17T11:52:35;3.40;;;1.10;;
11247;SDS011;5681;53.316;13.950;2023-08-17T11:55:03;4.15;;;1.08;;
11247;SDS011;5681;53.316;13.950;2023-08-17T11:57:30;2.78;;;0.90;;
11247;SDS011;5681;53.316;13.950;2023-08-17T11:59:58;7.30;;;1.25;;
11247;SDS011;5681;53.316;13.950;2023-08-17T12:02:25;4.97;;;1.10;;
11247;SDS011;5681;53.316;13.950;2023-08-17T12:04:52;2.15;;;0.90;;
11247;SDS011;5681;53.316;13.950;2023-08-17T12:07:19;3.40;;;1.10;;
11247;SDS011;5681;53.316;13.950;2023-08-17T12:09:47;5.18;;;1.20;;
11247;SDS011;5681;53.316;13.950;2023-08-17T12:12:17;2.80;;;1.00;;
11247;SDS011;5681;53.316;13.950;2023-08-17T12:14:44;2.10;;;0.90;;
11247;SDS011;5681;53.316;13.950;2023-08-17T12:17:15;2.78;;;1.10;;
11247;SDS011;5681;53.316;13.950;2023-08-17T12:19:42;2.20;;;1.08;;
11247;SDS011;5681;53.316;13.950;2023-08-17T12:22:09;6.03;;;1.30;;
11247;SDS011;5681;53.316;13.950;2023-08-17T12:24:35;3.03;;;1.10;;
11247;SDS011;5681;53.316;13.950;2023-08-17T12:27:04;3.08;;;1.25;;
11247;SDS011;5681;53.316;13.950;2023-08-17T12:29:31;3.38;;;0.98;;
11247;SDS011;5681;53.316;13.950;2023-08-17T12:31:57;3.47;;;1.02;;
11247;SDS011;5681;53.316;13.950;2023-08-17T12:34:25;3.78;;;1.42;;
11247;SDS011;5681;53.316;13.950;2023-08-17T12:36:52;3.60;;;1.40;;
11247;SDS011;5681;53.316;13.950;2023-08-17T12:39:18;7.47;;;1.42;;
11247;SDS011;5681;53.316;13.950;2023-08-17T12:41:44;7.03;;;1.10;;
11247;SDS011;5681;53.316;13.950;2023-08-17T12:44:11;11.82;;;1.50;;
11247;SDS011;5681;53.316;13.950;2023-08-17T12:46:38;10.60;;;1.58;;
11247;SDS011;5681;53.316;13.950;2023-08-17T12:49:05;7.80;;;1.20;;
11247;SDS011;5681;53.316;13.950;2023-08-17T12:51:32;1.77;;;1.10;;
11247;SDS011;5681;53.316;13.950;2023-08-17T12:53:59;2.15;;;0.80;;
11247;SDS011;5681;53.316;13.950;2023-08-17T12:56:25;6.13;;;1.35;;
11247;SDS011;5681;53.316;13.950;2023-08-17T12:58:52;5.15;;;1.00;;
11247;SDS011;5681;53.316;13.950;2023-08-17T13:01:18;4.10;;;1.10;;
11247;SDS011;5681;53.316;13.950;2023-08-17T13:03:44;5.65;;;1.05;;
11247;SDS011;5681;53.316;13.950;2023-08-17T13:06:11;2.70;;;1.55;;
11247;SDS011;5681;53.316;13.950;2023-08-17T13:08:38;7.13;;;1.30;;
11247;SDS011;5681;53.316;13.950;2023-08-17T13:11:05;6.65;;;1.17;;
11247;SDS011;5681;53.316;13.950;2023-08-17T13:13:31;3.83;;;1.42;;
11247;SDS011;5681;53.316;13.950;2023-08-17T13:15:57;5.03;;;1.25;;
11247;SDS011;5681;53.316;13.950;2023-08-17T13:18:24;13.68;;;1.30;;
11247;SDS011;5681;53.316;13.950;2023-08-17T13:20:50;5.97;;;1.20;;
11247;SDS011;5681;53.316;13.950;2023-08-17T13:23:16;3.45;;;1.02;;
11247;SDS011;5681;53.316;13.950;2023-08-17T13:25:44;6.55;;;1.30;;
11247;SDS011;5681;53.316;13.950;2023-08-17T13:28:10;3.05;;;1.15;;
11247;SDS011;5681;53.316;13.950;2023-08-17T13:30:37;4.13;;;1.25;;
11247;SDS011;5681;53.316;13.950;2023-08-17T13:33:04;3.88;;;1.17;;
11247;SDS011;5681;53.316;13.950;2023-08-17T13:35:31;5.85;;;1.10;;
11247;SDS011;5681;53.316;13.950;2023-08-17T13:37:57;3.53;;;1.20;;
11247;SDS011;5681;53.316;13.950;2023-08-17T13:40:24;3.13;;;1.35;;
11247;SDS011;5681;53.316;13.950;2023-08-17T13:42:52;3.35;;;1.30;;
11247;SDS011;5681;53.316;13.950;2023-08-17T13:45:18;4.75;;;1.10;;
11247;SDS011;5681;53.316;13.950;2023-08-17T13:47:44;3.03;;;1.13;;
11247;SDS011;5681;53.316;13.950;2023-08-17T13:50:11;2.85;;;1.00;;
11247;SDS011;5681;53.316;13.950;2023-08-17T13:52:37;2.22;;;1.00;;
11247;SDS011;5681;53.316;13.950;2023-08-17T13:55:04;5.53;;;1.30;;
11247;SDS011;5681;53.316;13.950;2023-08-17T13:57:31;2.28;;;1.00;;
11247;SDS011;5681;53.316;13.950;2023-08-17T13:59:58;6.82;;;1.30;;
11247;SDS011;5681;53.316;13.950;2023-08-17T14:02:25;1.50;;;1.00;;
11247;SDS011;5681;53.316;13.950;2023-08-17T14:04:51;2.28;;;1.00;;
11247;SDS011;5681;53.316;13.950;2023-08-17T14:07:17;4.13;;;0.90;;
11247;SDS011;5681;53.316;13.950;2023-08-17T14:09:44;8.43;;;1.40;;
11247;SDS011;5681;53.316;13.950;2023-08-17T14:12:10;6.10;;;1.20;;
11247;SDS011;5681;53.316;13.950;2023-08-17T14:14:36;5.60;;;1.27;;
11247;SDS011;5681;53.316;13.950;2023-08-17T14:17:04;4.13;;;1.10;;
11247;SDS011;5681;53.316;13.950;2023-08-17T14:19:30;9.45;;;1.27;;
11247;SDS011;5681;53.316;13.950;2023-08-17T14:21:57;8.63;;;1.20;;
11247;SDS011;5681;53.316;13.950;2023-08-17T14:24:25;5.43;;;1.10;;
11247;SDS011;5681;53.316;13.950;2023-08-17T14:26:52;7.43;;;1.15;;
11247;SDS011;5681;53.316;13.950;2023-08-17T14:29:18;4.18;;;1.02;;
11247;SDS011;5681;53.316;13.950;2023-08-17T14:31:45;4.72;;;1.05;;
11247;SDS011;5681;53.316;13.950;2023-08-17T14:34:12;4.22;;;1.10;;
11247;SDS011;5681;53.316;13.950;2023-08-17T14:36:40;2.58;;;0.98;;
11247;SDS011;5681;53.316;13.950;2023-08-17T14:39:06;3.72;;;1.10;;
11247;SDS011;5681;53.316;13.950;2023-08-17T14:41:32;3.00;;;0.95;;
11247;SDS011;5681;53.316;13.950;2023-08-17T14:43:59;5.32;;;1.10;;
11247;SDS011;5681;53.316;13.950;2023-08-17T14:46:25;4.43;;;1.20;;
11247;SDS011;5681;53.316;13.950;2023-08-17T14:48:52;2.78;;;0.90;;
11247;SDS011;5681;53.316;13.950;2023-08-17T14:51:20;6.43;;;1.20;;
11247;SDS011;5681;53.316;13.950;2023-08-17T14:53:46;2.35;;;1.10;;